Time;durP1;ratioP1;P1;durP2;ratioP2;P2;SDS_P1;SDS_P2;PMS_P1;PMS_P2;Temp;Humidity;BMP_temperature;BMP_pressure;BME280_temperature;BME280_humidity;BME280_pressure;Samples;Min_cycle;Max_cycle;Signal;HPM_P1;HPM_P2
2023/10/27 00:01:27;;;;;;;3.92;1.08;;;;;;;16.03;85.64;99918.56;10335195;28;96691;-80
2023/10/27 00:06:32;;;;;;;4.35;1.27;;;;;;;15.94;86.86;99917.38;10333804;28;96785;-80
2023/10/27 00:11:36;;;;;;;6.45;1.00;;;;;;;15.90;86.89;99918.53;10334607;28;96723;-79
2023/10/27 00:16:41;;;;;;;5.20;1.20;;;;;;;15.89;85.86;99918.66;10334361;28;96813;-79
2023/10/27 00:21:44;;;;;;;3.95;1.17;;;;;;;16.02;85.95;99926.63;10334372;28;96731;-79
2023/10/27 00:26:47;;;;;;;6.15;1.30;;;;;;;16.04;86.00;99911.44;10334369;28;97656;-79
2023/10/27 00:31:52;;;;;;;2.95;0.82;;;;;;;16.01;86.14;99914.31;10334060;28;97024;-79
2023/10/27 00:36:56;;;;;;;2.25;1.10;;;;;;;16.00;85.98;99905.50;10334021;28;97303;-79
2023/10/27 00:42:00;;;;;;;3.00;1.20;;;;;;;15.93;86.20;99914.00;10333744;28;96914;-80
2023/10/27 00:47:05;;;;;;;2.60;0.63;;;;;;;15.71;87.00;99906.59;10331637;22;98176;-80
2023/10/27 00:52:08;;;;;;;2.92;0.68;;;;;;;15.68;86.50;99880.28;10292122;28;97202;-79
2023/10/27 00:57:12;;;;;;;2.30;0.70;;;;;;;15.65;86.12;99870.69;10291084;28;96536;-79
2023/10/27 01:02:18;;;;;;;2.90;1.08;;;;;;;15.68;85.30;99867.84;10291778;28;96724;-79
2023/10/27 01:07:23;;;;;;;2.38;0.50;;;;;;;15.73;85.42;99867.56;10291506;28;96593;-80
2023/10/27 01:12:27;;;;;;;2.90;0.70;;;;;;;15.79;84.84;99865.34;10291505;28;96646;-79
2023/10/27 01:17:32;;;;;;;3.80;0.73;;;;;;;15.79;84.46;99859.16;10291137;28;97205;-79
2023/10/27 01:22:40;;;;;;;;;;;;;;;15.81;83.98;99852.81;10291446;28;96689;-79
2023/10/27 01:27:44;;;;;;;4.90;0.88;;;;;;;15.67;84.36;99842.28;10291709;28;97288;-80
2023/10/27 01:32:47;;;;;;;1.80;0.70;;;;;;;15.67;84.31;99844.06;10291280;28;96753;-79
2023/10/27 01:37:52;;;;;;;1.20;0.45;;;;;;;15.68;84.22;99841.31;10290826;28;96820;-79
2023/10/27 01:42:55;;;;;;;0.70;0.32;;;;;;;15.64;84.11;99837.19;10290822;28;97668;-79
2023/10/27 01:47:59;;;;;;;3.78;0.77;;;;;;;15.75;83.53;99836.47;10289045;28;96800;-79
2023/10/27 01:53:03;;;;;;;6.32;0.75;;;;;;;15.72;83.71;99832.22;10289980;28;96582;-79
2023/10/27 01:58:07;;;;;;;1.10;0.45;;;;;;;15.80;83.94;99823.75;10289535;28;96658;-79
2023/10/27 02:03:10;;;;;;;2.15;0.75;;;;;;;15.87;83.42;99825.84;10289882;28;97306;-79
2023/10/27 02:08:16;;;;;;;1.77;0.60;;;;;;;15.93;83.68;99831.72;10290084;28;97422;-79
2023/10/27 02:13:20;;;;;;;1.67;0.80;;;;;;;15.85;83.17;99822.47;10288948;28;96753;-80
2023/10/27 02:18:23;;;;;;;4.35;0.77;;;;;;;15.77;83.42;99816.81;10289737;28;96572;-79
2023/10/27 02:23:28;;;;;;;2.95;0.77;;;;;;;15.78;84.16;99839.78;10290225;28;97046;-79
2023/10/27 02:28:31;;;;;;;3.45;0.80;;;;;;;15.70;84.52;99830.63;10289183;28;96665;-79
2023/10/27 02:33:34;;;;;;;2.97;0.70;;;;;;;15.79;84.22;99835.28;10289100;28;97368;-79
2023/10/27 02:38:39;;;;;;;2.25;0.60;;;;;;;15.74;84.02;99808.22;10286873;28;96892;-79
2023/10/27 02:43:43;;;;;;;2.15;0.80;;;;;;;15.69;83.76;99813.84;10288666;28;96640;-80
2023/10/27 02:48:46;;;;;;;3.92;0.85;;;;;;;15.67;84.11;99805.13;10288129;28;96786;-80
2023/10/27 02:53:51;;;;;;;3.92;1.23;;;;;;;15.70;84.57;99796.16;10288834;28;96643;-79
2023/10/27 02:58:54;;;;;;;;;;;;;;;15.74;83.99;99793.16;10288883;28;96645;-80
2023/10/27 03:03:57;;;;;;;3.17;0.75;;;;;;;15.75;84.28;99783.41;10288531;28;97282;-80
2023/10/27 03:09:02;;;;;;;5.60;1.55;;;;;;;15.70;83.86;99770.44;10293975;28;96713;-80
2023/10/27 03:14:05;;;;;;;;;;;;;;;15.71;84.36;99753.59;10296268;28;96729;-80
2023/10/27 03:19:09;;;;;;;3.78;1.45;;;;;;;15.62;84.69;99756.88;10295595;28;96986;-80
2023/10/27 03:24:14;;;;;;;4.10;0.90;;;;;;;15.61;84.60;99755.16;10295137;28;97164;-80
2023/10/27 03:29:17;;;;;;;3.47;0.95;;;;;;;15.60;84.21;99756.13;10294310;28;97871;-80
2023/10/27 03:34:21;;;;;;;6.40;1.23;;;;;;;15.62;84.11;99758.66;10294647;28;97016;-80
2023/10/27 03:39:26;;;;;;;6.00;0.93;;;;;;;15.57;84.27;99758.13;10308075;28;96638;-80
2023/10/27 03:44:29;;;;;;;;;;;;;;;15.58;84.84;99763.31;10335715;28;96746;-79
2023/10/27 03:49:32;;;;;;;5.40;1.40;;;;;;;15.56;84.33;99749.31;10335482;28;97374;-79
2023/10/27 03:54:37;;;;;;;7.82;1.20;;;;;;;15.54;84.75;99755.69;10322666;28;96879;-79
2023/10/27 03:59:40;;;;;;;7.40;1.30;;;;;;;15.61;85.03;99756.97;10293728;28;96724;-79
2023/10/27 04:04:44;;;;;;;8.00;1.67;;;;;;;15.60;84.87;99740.19;10294475;28;96582;-79
2023/10/27 04:09:48;;;;;;;8.65;1.50;;;;;;;15.69;84.48;99741.38;10293214;28;96847;-79
2023/10/27 04:14:52;;;;;;;6.15;1.40;;;;;;;15.75;84.58;99733.00;10292670;28;97237;-79
2023/10/27 04:19:55;;;;;;;8.68;1.70;;;;;;;15.80;84.07;99731.72;10292167;28;96604;-80
2023/10/27 04:25:00;;;;;;;6.15;1.88;;;;;;;15.77;85.00;99737.22;10293014;28;97138;-80
2023/10/27 04:30:07;;;;;;;;;;;;;;;15.73;85.34;99722.50;10293795;28;96877;-80
2023/10/27 04:35:11;;;;;;;5.50;1.63;;;;;;;15.71;84.28;99710.28;10292691;28;97064;-80
2023/10/27 04:40:16;;;;;;;5.78;1.77;;;;;;;15.71;83.91;99710.28;10292660;28;96817;-80
2023/10/27 04:45:19;;;;;;;;;;;;;;;15.73;83.81;99701.28;10292610;28;98089;-80
2023/10/27 04:50:24;;;;;;;5.20;2.08;;;;;;;15.72;84.36;99701.38;10292640;28;96914;-80
2023/10/27 04:55:28;;;;;;;;;;;;;;;15.75;84.09;99690.56;10293723;28;96933;-79
2023/10/27 05:00:32;;;;;;;6.95;1.48;;;;;;;15.80;83.91;99685.78;10291998;28;97514;-80
2023/10/27 05:05:36;;;;;;;6.40;1.33;;;;;;;15.79;83.55;99676.97;10291369;28;97726;-80
2023/10/27 05:10:42;;;;;;;8.00;1.52;;;;;;;15.82;83.96;99675.91;10290484;28;96623;-79
2023/10/27 05:15:53;;;;;;;4.53;1.27;;;;;;;15.93;82.88;99664.56;10291048;28;96726;-79
2023/10/27 05:20:56;;;;;;;8.65;1.40;;;;;;;15.94;82.25;99659.13;10290806;28;96715;-79
2023/10/27 05:26:01;;;;;;;6.28;1.75;;;;;;;16.07;81.35;99667.91;10290916;28;96616;-79
2023/10/27 05:31:04;;;;;;;6.30;1.20;;;;;;;16.13;81.49;99662.19;10290248;28;97197;-79
2023/10/27 05:36:08;;;;;;;3.58;1.23;;;;;;;16.14;82.08;99655.03;10299864;28;97289;-80
2023/10/27 05:41:14;;;;;;;4.80;1.30;;;;;;;16.11;82.59;99652.59;10290618;28;96808;-81
2023/10/27 05:46:18;;;;;;;5.68;1.38;;;;;;;16.09;83.02;99662.47;10290487;28;96689;-81
2023/10/27 05:51:22;;;;;;;5.17;1.10;;;;;;;16.07;84.38;99669.69;10290059;28;96764;-80
2023/10/27 05:56:27;;;;;;;8.25;1.20;;;;;;;16.03;84.42;99654.97;10289915;28;96623;-80
2023/10/27 06:01:31;;;;;;;9.02;1.20;;;;;;;16.01;84.38;99664.84;10288896;28;96778;-79
2023/10/27 06:06:34;;;;;;;12.60;1.90;;;;;;;15.94;85.98;99697.09;10290147;28;97376;-80
2023/10/27 06:11:38;;;;;;;3.92;1.30;;;;;;;15.94;86.23;99690.97;10289682;28;96616;-80
2023/10/27 06:16:42;;;;;;;8.88;1.92;;;;;;;15.87;86.14;99697.66;10289821;28;97015;-80
2023/10/27 06:21:47;;;;;;;9.73;1.85;;;;;;;15.91;85.67;99686.72;10289904;28;96962;-81
2023/10/27 06:26:52;;;;;;;7.40;1.58;;;;;;;15.87;86.31;99700.31;10289249;28;96694;-80
2023/10/27 06:31:55;;;;;;;6.45;1.65;;;;;;;15.75;87.40;99709.97;10288911;28;97200;-79
2023/10/27 06:37:00;;;;;;;6.15;1.42;;;;;;;15.78;87.24;99715.06;10314879;28;96753;-80
2023/10/27 06:42:06;;;;;;;;;;;;;;;15.76;87.75;99751.47;10328594;28;96660;-80
2023/10/27 06:47:09;;;;;;;1.67;0.75;;;;;;;15.73;87.21;99749.03;10295693;28;96878;-81
2023/10/27 06:52:13;;;;;;;3.05;1.05;;;;;;;15.67;88.14;99746.78;10287437;28;97113;-79
2023/10/27 06:57:18;;;;;;;1.45;0.75;;;;;;;15.65;87.83;99758.44;10288398;28;96710;-80
2023/10/27 07:02:21;;;;;;;2.33;0.65;;;;;;;15.65;88.35;99751.34;10288060;28;96694;-79
2023/10/27 07:07:24;;;;;;;1.75;0.50;;;;;;;15.75;87.77;99760.38;10288255;28;97363;-80
2023/10/27 07:12:32;;;;;;;1.85;0.40;;;;;;;15.67;87.96;99762.69;10288056;28;96729;-80
2023/10/27 07:17:35;;;;;;;;;;;;;;;15.62;88.38;99778.09;10287986;28;97228;-80
2023/10/27 07:22:38;;;;;;;1.92;0.75;;;;;;;15.52;89.85;99763.75;10287959;28;96702;-79
2023/10/27 07:27:45;;;;;;;1.80;0.38;;;;;;;15.63;89.08;99769.16;10288434;28;96813;-79
2023/10/27 07:32:48;;;;;;;1.23;0.43;;;;;;;15.68;89.02;99779.47;10287679;28;97257;-79
2023/10/27 07:37:52;;;;;;;1.40;0.50;;;;;;;15.70;89.60;99781.06;10287637;28;97145;-80
2023/10/27 07:42:59;;;;;;;1.98;0.60;;;;;;;15.75;88.71;99792.19;10286477;28;97478;-79
2023/10/27 07:48:03;;;;;;;1.58;0.40;;;;;;;15.79;88.08;99819.38;10286943;28;97172;-79
2023/10/27 07:53:06;;;;;;;2.53;0.45;;;;;;;15.98;87.84;99829.59;10289647;28;96653;-79
2023/10/27 07:58:12;;;;;;;4.00;0.75;;;;;;;16.03;87.14;99816.88;10293977;28;96788;-79
2023/10/27 08:03:15;;;;;;;2.85;0.77;;;;;;;16.09;87.15;99837.66;10293588;28;97008;-79
2023/10/27 08:08:19;;;;;;;2.58;0.60;;;;;;;16.48;86.32;99843.75;10293232;28;97386;-79
2023/10/27 08:13:23;;;;;;;2.17;0.63;;;;;;;16.71;85.32;99850.09;10293235;28;96631;-80
2023/10/27 08:18:27;;;;;;;4.45;1.00;;;;;;;16.63;85.43;99839.16;10294300;28;96554;-79
2023/10/27 08:23:30;;;;;;;2.88;0.60;;;;;;;16.55;85.46;99830.91;10293457;28;96781;-78
2023/10/27 08:28:35;;;;;;;2.10;0.63;;;;;;;16.68;85.54;99835.25;10292437;28;96974;-78
2023/10/27 08:33:39;;;;;;;4.38;0.90;;;;;;;16.76;85.50;99835.53;10291793;28;96958;-79
2023/10/27 08:38:43;;;;;;;3.28;0.90;;;;;;;16.54;85.93;99855.75;10292460;28;96676;-79
2023/10/27 08:43:48;;;;;;;3.17;0.90;;;;;;;16.44;87.04;99874.16;10291934;28;97432;-81
2023/10/27 08:48:51;;;;;;;3.25;1.15;;;;;;;16.46;87.06;99879.34;10292273;28;97291;-79
2023/10/27 08:53:54;;;;;;;4.65;1.33;;;;;;;16.44;87.20;99886.56;10292150;28;96669;-79
2023/10/27 08:59:00;;;;;;;5.07;0.90;;;;;;;16.77;86.38;99879.72;10292000;28;96565;-79
2023/10/27 09:04:07;;;;;;;5.55;0.80;;;;;;;17.22;85.14;99888.03;10290349;28;96760;-79
2023/10/27 09:09:11;;;;;;;5.18;1.02;;;;;;;17.53;82.64;99896.38;10292361;28;96803;-79
2023/10/27 09:14:20;;;;;;;1.67;0.82;;;;;;;17.77;82.15;99910.53;10291226;28;96897;-79
2023/10/27 09:19:26;;;;;;;2.35;0.80;;;;;;;17.75;80.31;99893.81;10291225;28;97288;-79
2023/10/27 09:24:30;;;;;;;2.05;0.57;;;;;;;17.88;79.89;99907.06;10290262;28;97292;-78
2023/10/27 09:29:42;;;;;;;2.45;1.00;;;;;;;18.01;79.16;99895.38;10291291;28;96692;-79
2023/10/27 09:34:46;;;;;;;3.15;0.80;;;;;;;18.06;79.17;99900.34;10290398;28;97154;-79
2023/10/27 09:39:50;;;;;;;1.52;0.80;;;;;;;18.00;78.57;99890.16;10301385;28;97099;-78
2023/10/27 09:45:06;;;;;;;3.83;0.98;;;;;;;18.08;77.81;99893.09;10331080;28;96697;-78
2023/10/27 09:50:14;;;;;;;1.45;0.80;;;;;;;18.04;77.58;99888.94;10331325;28;96980;-78
2023/10/27 09:55:18;;;;;;;5.28;1.73;;;;;;;18.16;77.22;99880.03;10249791;28;97274;-78
2023/10/27 10:00:27;;;;;;;2.57;1.53;;;;;;;18.17;77.42;99882.59;10250497;28;96665;-78
2023/10/27 10:06:12;;;;;;;2.97;0.90;;;;;;;17.98;77.00;99892.09;10249806;28;97101;-78
2023/10/27 10:11:17;;;;;;;7.00;1.05;;;;;;;17.87;77.30;99878.72;10283134;28;96781;-78
2023/10/27 10:16:23;;;;;;;4.07;1.33;;;;;;;17.85;77.38;99891.31;10288183;28;96612;-78
2023/10/27 10:21:35;;;;;;;5.45;1.20;;;;;;;17.85;78.04;99896.63;10289337;28;97097;-78
2023/10/27 10:27:10;;;;;;;3.63;1.15;;;;;;;17.80;78.41;99896.13;10288805;28;97094;-78
2023/10/27 10:32:39;;;;;;;6.93;1.30;;;;;;;17.81;79.02;99895.19;10289204;28;97406;-79
2023/10/27 10:37:43;;;;;;;4.30;1.15;;;;;;;17.79;79.37;99897.97;10278917;28;96802;-79
2023/10/27 10:43:21;;;;;;;4.57;1.30;;;;;;;17.84;79.89;99901.13;10289192;28;97144;-81
2023/10/27 10:48:27;;;;;;;5.00;1.33;;;;;;;17.84;80.00;99901.13;10288542;28;97338;-80
2023/10/27 10:53:30;;;;;;;5.47;1.00;;;;;;;18.10;79.73;99904.47;10289694;28;97017;-80
2023/10/27 10:58:36;;;;;;;6.07;1.30;;;;;;;18.02;80.12;99904.22;10288269;28;97484;-80
2023/10/27 11:03:46;;;;;;;6.82;1.30;;;;;;;17.93;79.88;99884.44;10288594;28;97293;-82
2023/10/27 11:08:50;;;;;;;6.55;1.73;;;;;;;18.74;77.87;99874.59;10287442;28;96603;-81
2023/10/27 11:13:58;;;;;;;4.60;1.63;;;;;;;19.38;74.50;99878.25;10288173;28;96973;-80
2023/10/27 11:19:02;;;;;;;4.25;1.45;;;;;;;19.43;73.11;99877.91;10288126;28;96747;-80
2023/10/27 11:24:08;;;;;;;5.13;1.30;;;;;;;19.34;74.33;99876.81;10287871;28;97270;-80
2023/10/27 11:29:11;;;;;;;5.97;1.30;;;;;;;19.29;74.49;99873.66;10292050;28;97171;-80
2023/10/27 11:34:26;;;;;;;6.05;1.05;;;;;;;19.92;71.00;99884.41;10294409;28;97065;-80
2023/10/27 11:39:29;;;;;;;4.43;0.80;;;;;;;20.64;69.94;99895.19;10294731;28;96614;-79
2023/10/27 11:44:36;;;;;;;4.32;1.20;;;;;;;20.92;68.25;99900.69;10294471;28;97545;-79
2023/10/27 11:49:40;;;;;;;4.07;1.10;;;;;;;20.51;68.38;99894.56;10294468;28;97122;-79
2023/10/27 11:54:44;;;;;;;5.65;0.98;;;;;;;20.93;66.32;99886.31;10294742;28;97191;-79
2023/10/27 11:59:48;;;;;;;5.20;1.50;;;;;;;21.32;65.08;99871.28;10293224;28;97104;-79
2023/10/27 12:04:56;;;;;;;5.35;1.30;;;;;;;22.08;63.04;99867.81;10293316;28;96725;-79
2023/10/27 12:09:59;;;;;;;3.42;0.63;;;;;;;22.18;60.57;99860.59;10293721;28;96938;-79
2023/10/27 12:15:02;;;;;;;4.50;1.07;;;;;;;22.06;59.24;99851.88;10293050;28;96660;-79
2023/10/27 12:20:08;;;;;;;3.47;0.73;;;;;;;22.00;59.33;99851.63;10293540;28;97356;-79
2023/10/27 12:25:11;;;;;;;2.67;1.00;;;;;;;20.98;61.61;99843.94;10293170;28;97394;-79
2023/10/27 12:30:16;;;;;;;2.13;0.77;;;;;;;20.73;61.38;99847.09;10292765;28;96799;-78
2023/10/27 12:35:22;;;;;;;4.18;1.15;;;;;;;20.82;61.27;99850.81;10293070;28;96756;-79
2023/10/27 12:40:26;;;;;;;2.58;0.90;;;;;;;20.48;62.97;99842.19;10299581;28;97160;-79
2023/10/27 12:45:29;;;;;;;6.05;1.30;;;;;;;20.37;62.68;99839.63;10291883;28;96868;-79
2023/10/27 12:50:35;;;;;;;3.45;0.95;;;;;;;20.44;62.71;99854.16;10291437;28;96751;-79
2023/10/27 12:55:39;;;;;;;2.80;1.02;;;;;;;20.14;63.17;99854.91;10292241;28;97162;-79
2023/10/27 13:00:43;;;;;;;3.72;1.20;;;;;;;19.78;63.47;99862.50;10291676;28;96745;-79
2023/10/27 13:05:48;;;;;;;3.90;0.93;;;;;;;19.68;63.17;99857.09;10291731;28;96732;-78
2023/10/27 13:10:51;;;;;;;4.60;1.00;;;;;;;19.77;63.48;99848.28;10291779;28;97299;-78
2023/10/27 13:15:55;;;;;;;3.38;0.95;;;;;;;20.01;63.82;99862.25;10312279;22;97031;-79
2023/10/27 13:20:59;;;;;;;3.22;0.90;;;;;;;20.11;62.91;99857.00;10329845;28;96627;-78
2023/10/27 13:26:03;;;;;;;3.50;1.10;;;;;;;19.99;63.14;99856.22;10330151;28;96760;-79
2023/10/27 13:31:07;;;;;;;3.28;0.70;;;;;;;20.31;63.08;99854.34;10329657;28;96615;-78
2023/10/27 13:36:12;;;;;;;3.00;0.80;;;;;;;20.08;64.47;99857.28;10342529;28;96887;-78
2023/10/27 13:41:16;;;;;;;2.40;0.93;;;;;;;19.73;64.98;99841.53;10328470;28;97642;-78
2023/10/27 13:46:19;;;;;;;4.30;1.38;;;;;;;19.54;65.45;99835.19;10328803;28;97132;-79
2023/10/27 13:51:25;;;;;;;6.63;1.17;;;;;;;19.82;65.61;99837.25;10329073;28;96743;-78
2023/10/27 13:56:28;;;;;;;5.28;1.45;;;;;;;19.75;65.12;99823.53;10328749;28;96986;-78
2023/10/27 14:01:32;;;;;;;3.05;1.00;;;;;;;19.48;65.32;99825.84;10328437;28;96585;-78
2023/10/27 14:06:38;;;;;;;;;;;;;;;19.43;66.31;99816.53;10329336;28;97374;-78
2023/10/27 14:11:42;;;;;;;4.20;0.90;;;;;;;19.43;66.41;99822.72;10309049;28;97232;-78
2023/10/27 14:16:46;;;;;;;4.43;1.10;;;;;;;19.27;66.77;99819.56;10255717;28;1259931;-78
2023/10/27 14:21:53;;;;;;;3.17;0.95;;;;;;;19.05;67.85;99815.16;10326455;28;97347;-78
2023/10/27 14:26:56;;;;;;;3.28;1.10;;;;;;;18.69;70.35;99815.47;10330732;28;96785;-81
2023/10/27 14:32:00;;;;;;;6.13;1.13;;;;;;;18.46;72.05;99808.44;10329385;28;96680;-82
2023/10/27 14:37:05;;;;;;;3.58;1.23;;;;;;;18.26;73.98;99821.59;10327282;28;97416;-79
2023/10/27 14:42:09;;;;;;;4.43;1.15;;;;;;;18.16;74.49;99824.97;10335266;28;96807;-80
2023/10/27 14:47:12;;;;;;;5.45;1.17;;;;;;;18.09;75.13;99831.72;10329181;28;96771;-79
2023/10/27 14:52:17;;;;;;;3.40;1.00;;;;;;;18.14;74.98;99832.22;10329504;28;96572;-79
2023/10/27 14:57:20;;;;;;;3.30;0.80;;;;;;;18.08;74.83;99830.03;10329986;28;97197;-79
2023/10/27 15:02:25;;;;;;;5.22;1.13;;;;;;;18.02;75.06;99830.50;10328399;28;96600;-79
2023/10/27 15:07:29;;;;;;;;;;;;;;;17.93;75.72;99841.00;10330407;28;96751;-79
2023/10/27 15:12:33;;;;;;;5.40;1.23;;;;;;;17.89;75.23;99843.06;10329602;28;97322;-79
2023/10/27 15:17:37;;;;;;;4.80;1.00;;;;;;;17.86;75.50;99843.31;10329238;28;96694;-79
2023/10/27 15:22:42;;;;;;;2.43;0.80;;;;;;;17.84;75.62;99841.69;10327949;28;97349;-79
2023/10/27 15:27:45;;;;;;;;;;;;;;;17.94;76.07;99854.19;10329158;28;97430;-79
2023/10/27 15:32:48;;;;;;;4.10;1.13;;;;;;;17.92;75.21;99855.28;10329713;28;97102;-79
2023/10/27 15:37:53;;;;;;;3.45;0.90;;;;;;;17.84;75.23;99855.00;10288148;28;97009;-78
2023/10/27 15:42:57;;;;;;;;;;;;;;;17.84;74.94;99863.84;10314678;28;96725;-79
2023/10/27 15:48:00;;;;;;;3.25;0.85;;;;;;;17.90;74.98;99865.22;10335119;28;97100;-79
2023/10/27 15:53:05;;;;;;;4.25;1.00;;;;;;;17.86;74.51;99861.94;10369348;28;97035;-78
2023/10/27 15:58:09;;;;;;;2.70;0.90;;;;;;;17.75;74.92;99855.69;10370273;28;96667;-78
2023/10/27 16:03:12;;;;;;;3.88;1.17;;;;;;;17.80;74.87;99861.53;10369038;28;96643;-79
2023/10/27 16:08:18;;;;;;;5.15;1.15;;;;;;;17.79;75.33;99855.38;10368348;28;96841;-79
2023/10/27 16:13:21;;;;;;;1.73;0.70;;;;;;;17.68;75.63;99852.66;10369084;28;96770;-78
2023/10/27 16:18:25;;;;;;;2.55;0.75;;;;;;;17.76;75.41;99844.09;10376080;28;97425;-79
2023/10/27 16:23:30;;;;;;;4.00;1.20;;;;;;;17.78;75.42;99828.84;10374917;28;97084;-79
2023/10/27 16:28:34;;;;;;;;;;;;;;;17.76;75.67;99844.09;10375768;28;96596;-79
2023/10/27 16:33:38;;;;;;;3.13;1.10;;;;;;;17.81;75.35;99832.13;10351641;28;97065;-79
2023/10/27 16:38:43;;;;;;;5.93;1.53;;;;;;;17.80;75.34;99840.22;10338348;28;97061;-79
2023/10/27 16:43:46;;;;;;;;;;;;;;;17.71;77.13;99851.59;10367667;28;98434;-79
2023/10/27 16:48:50;;;;;;;2.67;1.08;;;;;;;17.61;76.79;99856.75;10331686;28;96846;-82
2023/10/27 16:53:55;;;;;;;6.17;1.10;;;;;;;17.38;77.93;99864.69;10333216;28;96714;-81
2023/10/27 16:58:58;;;;;;;;;;;;;;;17.12;81.62;99858.59;10334422;28;97225;-80
2023/10/27 17:04:02;;;;;;;4.63;1.30;;;;;;;17.02;80.98;99874.38;10332316;28;96804;-82
2023/10/27 17:09:07;;;;;;;3.60;1.23;;;;;;;17.02;80.36;99847.81;10333074;28;96883;-80
2023/10/27 17:14:10;;;;;;;4.78;1.05;;;;;;;16.99;80.57;99856.00;10332989;28;96977;-81
2023/10/27 17:19:14;;;;;;;4.18;0.60;;;;;;;16.89;81.15;99867.41;10332872;28;96598;-80
2023/10/27 17:24:19;;;;;;;1.02;0.50;;;;;;;16.82;81.27;99858.16;10331765;28;96661;-79
2023/10/27 17:29:22;;;;;;;2.00;0.80;;;;;;;16.87;80.98;99848.06;10332906;28;96849;-79
2023/10/27 17:34:25;;;;;;;2.78;0.95;;;;;;;16.89;80.68;99857.63;10331684;28;97028;-79
2023/10/27 17:39:31;;;;;;;2.05;0.90;;;;;;;16.97;80.89;99841.97;10328437;28;96845;-79
2023/10/27 17:44:36;;;;;;;2.00;1.00;;;;;;;16.90;80.86;99837.19;10290117;28;96782;-79
2023/10/27 17:49:38;;;;;;;;;;;;;;;16.84;80.88;99841.13;10321095;28;97394;-79
2023/10/27 17:54:43;;;;;;;1.33;0.70;;;;;;;16.76;80.51;99851.47;10330772;28;96900;-79
2023/10/27 17:59:47;;;;;;;1.80;1.00;;;;;;;16.67;81.53;99851.28;10331612;28;97173;-79
2023/10/27 18:04:51;;;;;;;2.67;0.87;;;;;;;16.65;81.28;99858.50;10331792;28;97664;-79
2023/10/27 18:09:56;;;;;;;2.95;1.23;;;;;;;16.44;82.21;99849.41;10330711;28;96721;-79
2023/10/27 18:14:59;;;;;;;4.60;1.08;;;;;;;16.43;81.88;99856.50;10330624;28;96958;-79
2023/10/27 18:20:06;;;;;;;2.05;0.88;;;;;;;16.36;82.74;99862.34;10330737;28;96636;-79
2023/10/27 18:25:11;;;;;;;1.75;0.90;;;;;;;16.43;81.92;99853.00;10371139;28;96673;-79
2023/10/27 18:30:14;;;;;;;;;;;;;;;16.33;82.59;99846.59;10373088;28;97062;-79
2023/10/27 18:35:18;;;;;;;3.20;1.27;;;;;;;16.32;81.97;99850.22;10371455;28;96765;-79
2023/10/27 18:40:25;;;;;;;3.15;1.40;;;;;;;16.25;82.07;99844.47;10355852;28;98183;-79
2023/10/27 18:45:29;;;;;;;3.17;1.38;;;;;;;16.26;81.59;99838.22;10328363;28;98177;-79
2023/10/27 18:50:33;;;;;;;3.10;1.25;;;;;;;16.22;81.74;99843.84;10329847;28;96731;-79
2023/10/27 18:55:37;;;;;;;3.27;1.37;;;;;;;16.15;82.59;99831.94;10341445;28;96613;-79
2023/10/27 19:00:42;;;;;;;2.75;1.17;;;;;;;16.03;82.83;99830.97;10371012;28;96699;-79
2023/10/27 19:05:48;;;;;;;2.43;1.43;;;;;;;16.05;83.05;99826.41;10370501;28;96853;-79
2023/10/27 19:11:03;;;;;;;2.95;1.77;;;;;;;16.15;82.78;99821.34;10370764;28;97566;-79
2023/10/27 19:16:08;;;;;;;;;;;;;;;16.08;84.04;99820.91;10330055;28;97279;-79
2023/10/27 19:21:12;;;;;;;3.65;1.65;;;;;;;16.04;83.22;99821.22;10330476;28;96974;-79
2023/10/27 19:26:19;;;;;;;5.32;2.33;;;;;;;15.86;84.56;99815.34;10329228;28;97598;-79
2023/10/27 19:31:26;;;;;;;4.90;2.28;;;;;;;15.87;84.32;99801.97;10329404;28;97510;-79
2023/10/27 19:36:30;;;;;;;4.95;1.83;;;;;;;15.89;84.64;99815.16;10327462;28;96863;-79
2023/10/27 19:41:35;;;;;;;5.72;1.95;;;;;;;15.95;84.47;99798.81;10328347;28;97306;-79
2023/10/27 19:46:38;;;;;;;4.60;2.10;;;;;;;15.99;83.98;99802.09;10328603;28;96777;-79
2023/10/27 19:51:44;;;;;;;4.35;1.77;;;;;;;16.06;84.55;99801.59;10334778;28;97158;-80
2023/10/27 19:56:49;;;;;;;4.05;1.80;;;;;;;15.99;84.96;99780.88;10335299;28;97093;-81
2023/10/27 20:01:52;;;;;;;;;;;;;;;16.00;84.28;99769.28;10335787;28;97342;-80
2023/10/27 20:06:55;;;;;;;3.97;1.75;;;;;;;15.92;85.61;99780.44;10335823;28;96655;-80
2023/10/27 20:12:00;;;;;;;5.18;2.03;;;;;;;15.93;85.26;99784.78;10335754;28;96934;-80
2023/10/27 20:17:06;;;;;;;3.10;1.75;;;;;;;15.96;85.31;99789.06;10334457;28;96960;-80
2023/10/27 20:22:09;;;;;;;3.92;2.20;;;;;;;15.92;85.70;99791.06;10335168;28;96945;-80
2023/10/27 20:27:14;;;;;;;4.72;2.42;;;;;;;15.90;85.95;99792.97;10333390;28;98436;-80
2023/10/27 20:32:17;;;;;;;;;;;;;;;15.84;85.64;99788.91;10334687;28;96650;-80
2023/10/27 20:37:21;;;;;;;3.33;2.28;;;;;;;15.90;86.24;99774.41;10343954;28;96718;-79
2023/10/27 20:42:27;;;;;;;4.20;1.90;;;;;;;15.90;85.63;99772.59;10346857;28;97397;-80
2023/10/27 20:47:30;;;;;;;4.13;1.88;;;;;;;15.96;85.82;99773.94;10333358;28;96815;-79
2023/10/27 20:52:34;;;;;;;6.85;2.00;;;;;;;15.90;86.37;99785.00;10333576;28;96775;-80
2023/10/27 20:57:39;;;;;;;4.63;2.00;;;;;;;15.84;86.93;99782.75;10334128;28;97152;-80
2023/10/27 21:02:42;;;;;;;3.45;1.88;;;;;;;15.85;86.98;99792.44;10334254;28;96720;-81
2023/10/27 21:07:47;;;;;;;2.95;1.75;;;;;;;15.88;87.23;99803.69;10333083;28;96704;-81
2023/10/27 21:12:52;;;;;;;;;;;;;;;15.92;86.26;99799.03;10333817;28;96684;-81
2023/10/27 21:17:56;;;;;;;4.30;2.23;;;;;;;15.79;88.22;99800.78;10331806;28;96699;-80
2023/10/27 21:23:00;;;;;;;4.10;1.97;;;;;;;15.82;89.29;99816.53;10332842;28;96998;-80
2023/10/27 21:28:05;;;;;;;5.38;1.52;;;;;;;15.81;88.38;99804.19;10333100;28;97266;-80
2023/10/27 21:33:09;;;;;;;3.92;1.73;;;;;;;15.84;88.80;99814.59;10332228;28;96640;-80
2023/10/27 21:38:13;;;;;;;5.73;1.97;;;;;;;15.88;87.87;99802.84;10332183;28;97296;-79
2023/10/27 21:43:19;;;;;;;3.17;1.50;;;;;;;16.00;87.36;99815.25;10330403;28;96691;-79
2023/10/27 21:48:23;;;;;;;3.33;1.52;;;;;;;15.91;87.27;99819.41;10331807;28;96842;-80
2023/10/27 21:53:27;;;;;;;3.25;1.35;;;;;;;16.01;87.88;99822.28;10332192;28;97156;-80
2023/10/27 21:58:32;;;;;;;3.55;1.27;;;;;;;16.04;87.63;99818.56;10331508;28;96743;-79
2023/10/27 22:03:37;;;;;;;3.22;1.20;;;;;;;16.00;86.87;99815.25;10331848;28;96813;-80
2023/10/27 22:08:41;;;;;;;;;;;;;;;15.98;88.38;99813.69;10330711;28;96737;-80
2023/10/27 22:13:45;;;;;;;3.17;1.48;;;;;;;15.86;89.66;99820.66;10330346;28;96830;-80
2023/10/27 22:18:49;;;;;;;5.28;1.42;;;;;;;15.94;89.03;99808.56;10331466;28;96939;-80
2023/10/27 22:23:52;;;;;;;3.97;1.60;;;;;;;15.98;88.66;99813.69;10330430;28;97998;-80
2023/10/27 22:28:57;;;;;;;3.85;1.02;;;;;;;15.99;88.61;99821.53;10330802;28;97047;-80
2023/10/27 22:34:01;;;;;;;4.05;0.85;;;;;;;16.05;88.48;99818.44;10330321;28;96664;-80
2023/10/27 22:39:05;;;;;;;4.93;1.13;;;;;;;16.02;87.48;99818.66;10330988;28;97092;-79
2023/10/27 22:44:10;;;;;;;2.83;1.10;;;;;;;16.11;88.27;99814.53;10330392;28;96942;-80
2023/10/27 22:49:13;;;;;;;1.83;1.00;;;;;;;16.10;88.01;99804.88;10329934;28;97313;-80
2023/10/27 22:54:16;;;;;;;2.30;1.00;;;;;;;15.95;89.54;99798.81;10330172;28;96655;-81
2023/10/27 22:59:21;;;;;;;1.88;0.75;;;;;;;15.89;89.40;99789.47;10328679;28;96944;-80
2023/10/27 23:04:24;;;;;;;1.63;0.80;;;;;;;15.89;89.76;99776.19;10329554;28;96629;-80
2023/10/27 23:09:28;;;;;;;2.88;1.02;;;;;;;15.92;89.20;99751.25;10329847;28;97298;-79
2023/10/27 23:14:33;;;;;;;3.67;1.07;;;;;;;15.88;88.97;99757.72;10328923;28;96905;-79
2023/10/27 23:19:36;;;;;;;2.13;0.75;;;;;;;15.88;90.22;99755.94;10329420;28;97000;-79
2023/10/27 23:24:40;;;;;;;2.40;0.95;;;;;;;15.82;90.10;99744.91;10332621;28;96557;-79
2023/10/27 23:29:44;;;;;;;3.22;1.50;;;;;;;15.76;90.71;99740.84;10336842;28;97027;-79
2023/10/27 23:34:48;;;;;;;;;;;;;;;15.75;90.55;99741.78;10337220;28;97160;-79
2023/10/27 23:39:51;;;;;;;2.28;0.85;;;;;;;15.67;91.07;99730.00;10336491;28;96836;-79
2023/10/27 23:44:56;;;;;;;2.15;0.80;;;;;;;15.73;90.51;99737.56;10335787;28;97574;-78
2023/10/27 23:49:59;;;;;;;;;;;;;;;15.71;90.56;99729.72;10335005;28;96920;-79